createdAt,value
2023-03-31T00:01:04.592Z,10.79
2023-03-31T00:04:09.771Z,10.72
2023-03-31T00:07:16.879Z,10.70
2023-03-31T00:10:20.089Z,10.71
2023-03-31T00:13:26.367Z,10.77
2023-03-31T00:16:30.442Z,10.81
2023-03-31T00:19:34.072Z,10.79
2023-03-31T00:22:42.093Z,10.76
2023-03-31T00:25:46.302Z,10.75
2023-03-31T00:28:52.423Z,10.73
2023-03-31T00:31:57.285Z,10.73
2023-03-31T00:35:02.355Z,10.73
2023-03-31T00:38:08.999Z,10.74
2023-03-31T00:41:12.206Z,10.69
2023-03-31T00:44:22.644Z,10.67
2023-03-31T00:47:28.085Z,10.68
2023-03-31T00:50:36.972Z,10.67
2023-03-31T00:53:43.511Z,10.68
2023-03-31T00:56:49.949Z,10.66
2023-03-31T00:59:58.470Z,10.62
2023-03-31T01:03:10.105Z,10.62
2023-03-31T01:06:19.716Z,10.50
2023-03-31T01:09:26.824Z,10.54
2023-03-31T01:12:32.833Z,10.51
2023-03-31T01:15:36.297Z,10.51
2023-03-31T01:18:40.082Z,10.44
2023-03-31T01:22:46.827Z,10.38
2023-03-31T01:26:45.482Z,10.37
2023-03-31T01:30:38.320Z,10.27
2023-03-31T01:34:24.780Z,10.22
2023-03-31T01:38:31.399Z,10.18
2023-03-31T01:41:57.132Z,10.11
2023-03-31T01:45:12.286Z,10.12
2023-03-31T01:48:18.660Z,10.15
2023-03-31T01:51:33.283Z,10.14
2023-03-31T01:54:43.169Z,10.10
2023-03-31T01:57:52.166Z,10.11
2023-03-31T02:01:02.056Z,10.12
2023-03-31T02:04:13.201Z,10.16
2023-03-31T02:07:20.709Z,10.21
2023-03-31T02:10:27.474Z,10.20
2023-03-31T02:13:41.490Z,10.20
2023-03-31T02:16:48.043Z,10.22
2023-03-31T02:19:54.568Z,10.17
2023-03-31T02:23:03.455Z,10.18
2023-03-31T02:26:12.280Z,10.08
2023-03-31T02:29:16.990Z,10.11
2023-03-31T02:32:25.665Z,10.13
2023-03-31T02:35:30.784Z,10.17
2023-03-31T02:38:38.706Z,10.18
2023-03-31T02:41:42.952Z,10.14
2023-03-31T02:44:50.608Z,10.19
2023-03-31T02:47:53.976Z,10.18
2023-03-31T02:51:35.474Z,10.19
2023-03-31T02:55:04.468Z,10.12
2023-03-31T02:58:36.042Z,10.17
2023-03-31T03:01:53.638Z,10.19
2023-03-31T03:05:13.658Z,10.16
2023-03-31T03:08:37.989Z,10.23
2023-03-31T03:11:52.897Z,10.27
2023-03-31T03:15:01.735Z,10.26
2023-03-31T03:18:07.830Z,10.26
2023-03-31T03:21:11.037Z,10.24
2023-03-31T03:24:14.449Z,10.23
2023-03-31T03:27:17.411Z,10.22
2023-03-31T03:30:20.914Z,10.20
2023-03-31T03:33:28.207Z,10.24
2023-03-31T03:36:33.090Z,10.26
2023-03-31T03:39:38.643Z,10.30
2023-03-31T03:42:41.645Z,10.27
2023-03-31T03:45:49.376Z,10.27
2023-03-31T03:48:53.773Z,10.21
2023-03-31T03:51:57.828Z,10.19
2023-03-31T03:55:02.868Z,10.13
2023-03-31T03:58:06.851Z,10.18
2023-03-31T04:01:10.590Z,10.08
2023-03-31T04:04:18.291Z,10.11
2023-03-31T04:07:21.334Z,10.15
2023-03-31T04:10:24.511Z,10.09
2023-03-31T04:13:29.786Z,10.08
2023-03-31T04:16:34.579Z,10.13
2023-03-31T04:19:50.765Z,10.17
2023-03-31T04:22:58.142Z,10.23
2023-03-31T04:26:02.766Z,10.20
2023-03-31T04:29:07.472Z,10.17
2023-03-31T04:32:15.357Z,10.20
2023-03-31T04:35:20.884Z,10.11
2023-03-31T04:39:09.014Z,10.12
2023-03-31T04:42:12.329Z,10.07
2023-03-31T04:45:15.833Z,10.03
2023-03-31T04:48:19.066Z,9.96
2023-03-31T04:51:23.752Z,9.97
2023-03-31T04:54:26.782Z,10.00
2023-03-31T04:57:29.942Z,10.08
2023-03-31T05:00:43.241Z,10.07
2023-03-31T05:03:49.101Z,10.14
2023-03-31T05:06:53.975Z,10.16
2023-03-31T05:09:56.947Z,10.18
2023-03-31T05:12:59.905Z,10.14
2023-03-31T05:16:09.070Z,10.14
2023-03-31T05:19:14.285Z,10.12
2023-03-31T05:22:20.621Z,10.12
2023-03-31T05:25:24.147Z,10.10
2023-03-31T05:28:32.433Z,10.05
2023-03-31T05:31:35.961Z,9.98
2023-03-31T05:34:43.232Z,9.98
2023-03-31T05:37:47.590Z,10.01
2023-03-31T05:40:52.996Z,9.99
2023-03-31T05:43:56.397Z,9.98
2023-03-31T05:47:14.106Z,10.00
2023-03-31T05:50:17.914Z,10.07
2023-03-31T05:53:22.384Z,10.06
2023-03-31T05:56:27.732Z,10.14
2023-03-31T05:59:30.747Z,10.31
2023-03-31T06:02:34.637Z,10.48
2023-03-31T06:05:38.263Z,10.61
2023-03-31T06:08:43.944Z,10.74
2023-03-31T06:11:49.375Z,10.68
2023-03-31T06:14:53.400Z,10.66
2023-03-31T06:17:56.472Z,10.62
2023-03-31T06:21:00.254Z,10.62
2023-03-31T06:24:04.847Z,10.66
2023-03-31T06:27:08.135Z,10.74
2023-03-31T06:30:12.505Z,10.80
2023-03-31T06:33:16.462Z,10.80
2023-03-31T06:36:22.042Z,10.71
2023-03-31T06:39:28.622Z,10.71
2023-03-31T06:42:31.830Z,10.68
2023-03-31T06:45:34.948Z,10.75
2023-03-31T06:48:37.939Z,10.74
2023-03-31T06:51:40.917Z,10.86
2023-03-31T06:54:45.677Z,10.97
2023-03-31T06:57:48.823Z,10.97
2023-03-31T07:00:52.864Z,11.13
2023-03-31T07:03:55.988Z,11.23
2023-03-31T07:06:59.803Z,11.25
2023-03-31T07:10:10.430Z,11.48
2023-03-31T07:13:14.090Z,11.52
2023-03-31T07:16:17.169Z,11.57
2023-03-31T07:19:22.964Z,11.67
2023-03-31T07:22:28.915Z,11.69
2023-03-31T07:25:35.188Z,11.79
2023-03-31T07:28:38.329Z,11.85
2023-03-31T07:31:42.178Z,11.97
2023-03-31T07:34:45.367Z,12.15
2023-03-31T07:37:50.616Z,12.27
2023-03-31T07:41:07.738Z,12.34
2023-03-31T07:44:12.001Z,12.30
2023-03-31T07:47:15.295Z,12.35
2023-03-31T07:50:19.445Z,12.35
2023-03-31T07:53:27.509Z,12.32
2023-03-31T07:56:34.733Z,12.49
2023-03-31T07:59:37.913Z,12.66
2023-03-31T08:02:42.805Z,12.96
2023-03-31T08:05:46.143Z,12.96
2023-03-31T08:08:49.964Z,13.05
2023-03-31T08:11:54.294Z,13.22
2023-03-31T08:14:57.248Z,13.37
2023-03-31T08:18:00.428Z,13.44
2023-03-31T08:21:03.540Z,13.52
2023-03-31T08:24:08.431Z,13.60
2023-03-31T08:27:12.718Z,13.61
2023-03-31T08:30:16.197Z,13.62
2023-03-31T08:33:19.469Z,13.68
2023-03-31T08:36:22.954Z,13.81
2023-03-31T08:39:27.197Z,13.92
2023-03-31T08:42:40.692Z,14.02
2023-03-31T08:45:48.095Z,14.10
2023-03-31T08:48:54.170Z,14.10
2023-03-31T08:52:01.081Z,13.99
2023-03-31T08:55:13.610Z,14.06
2023-03-31T08:58:33.362Z,14.05
2023-03-31T09:01:54.515Z,14.12
2023-03-31T09:05:20.946Z,14.14
2023-03-31T09:08:36.549Z,14.16
2023-03-31T09:11:47.169Z,14.19
2023-03-31T09:14:58.995Z,14.29
2023-03-31T09:18:18.261Z,14.32
2023-03-31T09:21:27.502Z,14.31
2023-03-31T09:24:46.841Z,14.33
2023-03-31T09:27:51.622Z,14.53
2023-03-31T09:30:56.680Z,14.93
2023-03-31T09:34:03.453Z,15.29
2023-03-31T09:37:06.585Z,15.47
2023-03-31T09:40:18.491Z,15.15
2023-03-31T09:43:26.663Z,14.76
2023-03-31T09:46:34.438Z,14.73
2023-03-31T09:49:38.779Z,14.63
2023-03-31T09:52:45.402Z,14.48
2023-03-31T09:55:57.039Z,14.45
2023-03-31T09:59:03.386Z,14.45
2023-03-31T10:02:36.074Z,14.62
2023-03-31T10:05:41.315Z,14.84
2023-03-31T10:08:49.363Z,14.97
2023-03-31T10:11:58.822Z,14.96
2023-03-31T10:15:21.039Z,14.94
2023-03-31T10:18:35.788Z,14.65
2023-03-31T10:21:39.634Z,14.48
2023-03-31T10:24:45.433Z,14.40
2023-03-31T10:27:53.371Z,14.55
2023-03-31T10:31:03.157Z,14.62
2023-03-31T10:34:11.640Z,14.57
2023-03-31T10:37:20.363Z,14.54
2023-03-31T10:40:28.357Z,14.48
2023-03-31T10:43:39.750Z,14.34
2023-03-31T10:46:48.722Z,14.36
2023-03-31T10:49:58.281Z,14.44
2023-03-31T10:53:07.653Z,14.40
2023-03-31T10:56:35.048Z,14.38
2023-03-31T11:00:02.021Z,14.43
2023-03-31T11:03:46.512Z,14.48
2023-03-31T11:06:58.465Z,14.19
2023-03-31T11:10:22.143Z,13.86
2023-03-31T11:13:34.006Z,13.64
2023-03-31T11:16:47.817Z,13.52
2023-03-31T11:20:06.416Z,13.77
2023-03-31T11:23:19.475Z,14.03
2023-03-31T11:26:34.752Z,14.17
2023-03-31T11:29:45.051Z,14.15
2023-03-31T11:33:04.368Z,14.15
2023-03-31T11:36:26.140Z,13.93
2023-03-31T11:39:49.145Z,14.00
2023-03-31T11:42:56.479Z,14.21
2023-03-31T11:46:08.133Z,14.40
2023-03-31T11:49:23.529Z,14.39
2023-03-31T11:52:30.949Z,14.44
2023-03-31T11:55:37.248Z,14.51
2023-03-31T11:58:48.796Z,14.62
2023-03-31T12:02:02.716Z,14.63
2023-03-31T12:05:17.227Z,14.55
2023-03-31T12:08:32.143Z,14.69
2023-03-31T12:11:42.643Z,14.48
2023-03-31T12:14:52.807Z,14.57
2023-03-31T12:18:02.156Z,14.39
2023-03-31T12:21:07.241Z,14.59
2023-03-31T12:24:17.035Z,14.62
2023-03-31T12:27:27.684Z,14.39
2023-03-31T12:30:37.415Z,14.51
2023-03-31T12:33:54.575Z,14.49
2023-03-31T12:37:22.609Z,14.29
2023-03-31T12:40:56.107Z,14.20
2023-03-31T12:44:31.153Z,13.83
2023-03-31T12:48:08.644Z,13.01
2023-03-31T12:51:46.060Z,12.77
2023-03-31T12:55:22.756Z,12.48
2023-03-31T12:58:47.613Z,12.41
2023-03-31T13:02:29.868Z,12.36
2023-03-31T13:05:49.726Z,12.35
2023-03-31T13:09:01.090Z,12.41
2023-03-31T13:12:11.175Z,12.49
2023-03-31T13:15:15.733Z,12.39
2023-03-31T13:18:22.928Z,12.34
2023-03-31T13:21:28.523Z,12.31
2023-03-31T13:24:38.431Z,12.34
2023-03-31T13:27:53.440Z,12.48
2023-03-31T13:31:05.896Z,12.43
2023-03-31T13:34:10.320Z,12.27
2023-03-31T13:37:24.084Z,11.93
2023-03-31T13:40:51.708Z,11.78
2023-03-31T13:44:21.652Z,11.69
2023-03-31T13:48:06.501Z,11.56
2023-03-31T13:51:43.938Z,11.24
2023-03-31T13:55:41.068Z,11.15
2023-03-31T13:59:07.169Z,11.20
2023-03-31T14:02:44.202Z,11.27
2023-03-31T14:05:58.331Z,11.26
2023-03-31T14:09:07.803Z,11.15
2023-03-31T14:12:23.172Z,11.12
2023-03-31T14:15:26.344Z,11.11
2023-03-31T14:18:33.598Z,11.06
2023-03-31T14:21:43.685Z,11.13
2023-03-31T14:24:56.427Z,11.00
2023-03-31T14:28:32.477Z,10.89
2023-03-31T14:31:41.443Z,10.86
2023-03-31T14:34:58.142Z,10.78
2023-03-31T14:38:05.383Z,10.81
2023-03-31T14:41:21.178Z,10.77
2023-03-31T14:44:26.693Z,10.62
2023-03-31T14:47:32.023Z,10.57
2023-03-31T14:50:36.517Z,10.63
2023-03-31T14:53:39.915Z,10.65
2023-03-31T14:56:46.034Z,10.64
2023-03-31T14:59:51.919Z,10.75
2023-03-31T15:02:56.289Z,10.68
2023-03-31T15:06:04.903Z,10.76
2023-03-31T15:09:11.301Z,10.81
2023-03-31T15:12:16.958Z,10.85
2023-03-31T15:15:21.453Z,10.87
2023-03-31T15:18:27.950Z,10.81
2023-03-31T15:21:37.461Z,10.85
2023-03-31T15:24:40.899Z,10.85
2023-03-31T15:27:51.293Z,10.88
2023-03-31T15:31:06.929Z,10.78
2023-03-31T15:34:16.525Z,10.87
2023-03-31T15:37:27.891Z,10.84
2023-03-31T15:40:37.022Z,10.78
2023-03-31T15:43:49.027Z,10.87
2023-03-31T15:47:00.611Z,10.89
2023-03-31T15:50:13.879Z,10.90
2023-03-31T15:53:37.327Z,10.86
2023-03-31T15:56:45.467Z,10.79
2023-03-31T15:59:55.771Z,10.82
2023-03-31T16:03:01.875Z,10.83
2023-03-31T16:06:09.025Z,10.86
2023-03-31T16:09:17.399Z,10.86
2023-03-31T16:12:24.492Z,10.68
2023-03-31T16:15:36.256Z,10.77
2023-03-31T16:18:43.442Z,10.79
2023-03-31T16:21:52.555Z,10.82
2023-03-31T16:24:58.262Z,10.76
2023-03-31T16:28:02.785Z,10.74
2023-03-31T16:31:35.500Z,10.74
2023-03-31T16:34:54.510Z,10.69
2023-03-31T16:38:01.645Z,10.74
2023-03-31T16:41:07.588Z,10.73
2023-03-31T16:44:12.519Z,10.66
2023-03-31T16:47:34.032Z,10.62
2023-03-31T16:50:38.394Z,10.52
2023-03-31T16:53:41.892Z,10.60
2023-03-31T16:56:45.702Z,10.62
2023-03-31T16:59:49.534Z,10.66
2023-03-31T17:02:54.677Z,10.50
2023-03-31T17:05:59.582Z,10.57
2023-03-31T17:09:02.944Z,10.61
2023-03-31T17:12:06.481Z,10.61
2023-03-31T17:15:13.998Z,10.64
2023-03-31T17:18:18.483Z,10.66
2023-03-31T17:21:22.143Z,10.64
2023-03-31T17:24:25.335Z,10.62
2023-03-31T17:27:30.873Z,10.57
2023-03-31T17:30:38.656Z,10.61
2023-03-31T17:33:46.667Z,10.60
2023-03-31T17:36:52.265Z,10.56
2023-03-31T17:39:56.326Z,10.51
2023-03-31T17:42:59.898Z,10.51
2023-03-31T17:46:04.209Z,10.53
2023-03-31T17:49:12.611Z,10.48
2023-03-31T17:52:15.705Z,10.54
2023-03-31T17:55:19.169Z,10.49
2023-03-31T17:58:23.337Z,10.53
2023-03-31T18:01:27.314Z,10.46
2023-03-31T18:04:32.206Z,10.51
2023-03-31T18:07:38.557Z,10.47
2023-03-31T18:10:42.896Z,10.42
2023-03-31T18:13:46.130Z,10.47
2023-03-31T18:16:49.187Z,10.40
2023-03-31T18:19:53.479Z,10.43
2023-03-31T18:22:56.403Z,10.42
2023-03-31T18:25:59.656Z,10.38
2023-03-31T18:29:03.457Z,10.33
2023-03-31T18:32:06.671Z,10.36
2023-03-31T18:35:11.691Z,10.28
2023-03-31T18:38:16.475Z,10.34
2023-03-31T18:41:20.051Z,10.35
2023-03-31T18:44:23.212Z,10.41
2023-03-31T18:47:29.359Z,10.43
2023-03-31T18:50:34.017Z,10.41
2023-03-31T18:53:40.213Z,10.37
2023-03-31T18:56:43.794Z,10.35
2023-03-31T18:59:47.049Z,10.39
2023-03-31T19:02:50.214Z,10.41
2023-03-31T19:06:01.618Z,10.35
2023-03-31T19:09:06.150Z,10.34
2023-03-31T19:12:09.148Z,10.40
2023-03-31T19:15:12.375Z,10.40
2023-03-31T19:18:16.512Z,10.32
2023-03-31T19:21:21.936Z,10.34
2023-03-31T19:24:25.554Z,10.34
2023-03-31T19:27:28.543Z,10.32
2023-03-31T19:30:34.093Z,10.33
2023-03-31T19:33:37.423Z,10.34
2023-03-31T19:36:41.664Z,10.36
2023-03-31T19:39:44.568Z,10.38
2023-03-31T19:42:47.580Z,10.37
2023-03-31T19:45:53.211Z,10.36
2023-03-31T19:48:56.637Z,10.37
2023-03-31T19:52:00.929Z,10.36
2023-03-31T19:55:04.936Z,10.39
2023-03-31T19:58:07.918Z,10.29
2023-03-31T20:01:17.769Z,10.34
2023-03-31T20:04:20.977Z,10.24
2023-03-31T20:07:25.961Z,10.23
2023-03-31T20:10:29.266Z,10.14
2023-03-31T20:13:35.678Z,10.21
2023-03-31T20:16:38.704Z,10.25
2023-03-31T20:19:42.040Z,10.27
2023-03-31T20:22:46.685Z,10.27
2023-03-31T20:25:49.616Z,10.22
2023-03-31T20:28:55.909Z,10.29
2023-03-31T20:31:59.023Z,10.30
2023-03-31T20:35:02.615Z,10.27
2023-03-31T20:38:07.256Z,10.31
2023-03-31T20:41:10.972Z,10.30
2023-03-31T20:44:15.881Z,10.31
2023-03-31T20:47:19.174Z,10.29
2023-03-31T20:50:22.988Z,10.30
2023-03-31T20:53:27.324Z,10.31
2023-03-31T20:56:32.739Z,10.26
2023-03-31T20:59:35.815Z,10.28
2023-03-31T21:02:39.701Z,10.26
2023-03-31T21:05:44.119Z,10.28
2023-03-31T21:08:53.402Z,10.21
2023-03-31T21:11:56.385Z,10.20
2023-03-31T21:14:59.337Z,10.18
2023-03-31T21:18:02.308Z,10.19
2023-03-31T21:21:08.430Z,10.21
2023-03-31T21:24:14.286Z,10.18
2023-03-31T21:27:17.280Z,10.14
2023-03-31T21:30:21.366Z,10.14
2023-03-31T21:33:28.756Z,10.13
2023-03-31T21:36:31.814Z,10.09
2023-03-31T21:39:36.207Z,10.07
2023-03-31T21:42:39.353Z,10.04
2023-03-31T21:45:42.940Z,10.06
2023-03-31T21:48:48.594Z,10.04
2023-03-31T21:51:51.746Z,10.00
2023-03-31T21:54:56.273Z,9.95
2023-03-31T21:57:59.814Z,9.90
2023-03-31T22:01:05.175Z,9.83
2023-03-31T22:04:09.137Z,9.84
2023-03-31T22:07:14.326Z,9.82
2023-03-31T22:10:18.955Z,9.89
2023-03-31T22:13:23.972Z,9.85
2023-03-31T22:16:27.107Z,9.87
2023-03-31T22:19:31.644Z,9.80
2023-03-31T22:22:36.244Z,9.84
2023-03-31T22:25:40.761Z,9.78
2023-03-31T22:28:43.824Z,9.79
2023-03-31T22:31:46.968Z,9.76
2023-03-31T22:34:50.504Z,9.73
2023-03-31T22:37:53.794Z,9.72
2023-03-31T22:40:58.271Z,9.75
2023-03-31T22:44:01.274Z,9.75
2023-03-31T22:47:04.349Z,9.74
2023-03-31T22:50:08.525Z,9.74
2023-03-31T22:53:11.784Z,9.72
2023-03-31T22:56:16.179Z,9.65
2023-03-31T22:59:19.656Z,9.71
2023-03-31T23:02:22.864Z,9.72
2023-03-31T23:05:25.900Z,9.74
2023-03-31T23:08:32.008Z,9.72
2023-03-31T23:11:36.322Z,9.70
2023-03-31T23:14:39.622Z,9.66
2023-03-31T23:17:42.679Z,9.71
2023-03-31T23:20:46.602Z,9.73
2023-03-31T23:23:53.863Z,9.68
2023-03-31T23:26:58.248Z,9.67
2023-03-31T23:30:01.402Z,9.64
2023-03-31T23:33:04.597Z,9.64
2023-03-31T23:36:09.249Z,9.64
2023-03-31T23:39:13.150Z,9.60
2023-03-31T23:42:20.550Z,9.55
2023-03-31T23:45:23.865Z,9.59
2023-03-31T23:48:26.995Z,9.57
2023-03-31T23:51:30.472Z,9.57
2023-03-31T23:54:33.641Z,9.54
2023-03-31T23:57:38.163Z,9.53
